Time;durP1;ratioP1;P1;durP2;ratioP2;P2;SDS_P1;SDS_P2;PMS_P1;PMS_P2;Temp;Humidity;BMP_temperature;BMP_pressure;BME280_temperature;BME280_humidity;BME280_pressure;Samples;Min_cycle;Max_cycle;Signal;HPM_P1;HPM_P2
2022/11/17 00:00:19;;;;;;;54.72;35.40;;;;;;;12.25;62.39;99792.34;4993518;28;20437;-78
2022/11/17 00:02:46;;;;;;;46.33;32.60;;;;;;;12.15;63.00;99789.28;5000205;28;20414;-78
2022/11/17 00:05:12;;;;;;;46.77;32.23;;;;;;;12.21;62.91;99791.13;5008097;28;20804;-78
2022/11/17 00:07:38;;;;;;;54.08;37.45;;;;;;;12.34;62.31;99796.44;4993890;28;20742;-78
2022/11/17 00:10:04;;;;;;;49.92;33.38;;;;;;;12.33;62.40;99792.13;4994679;28;20406;-77
2022/11/17 00:15:13;;;;;;;49.47;35.33;;;;;;;12.21;62.89;99791.94;4991295;28;20858;-77
2022/11/17 00:17:39;;;;;;;49.97;38.65;;;;;;;12.35;62.70;99792.78;4995493;28;20523;-77
2022/11/17 00:22:49;;;;;;;44.42;31.35;;;;;;;12.49;61.65;99798.06;4992501;28;20739;-77
2022/11/17 00:25:15;;;;;;;41.03;29.80;;;;;;;12.32;62.52;99801.16;4996970;28;20401;-77
2022/11/17 00:27:40;;;;;;;42.00;30.07;;;;;;;12.26;62.62;99793.16;5003546;28;20776;-78
2022/11/17 00:30:06;;;;;;;43.03;30.30;;;;;;;12.22;62.88;99795.41;4999791;28;20909;-77
2022/11/17 00:35:16;;;;;;;40.65;28.38;;;;;;;11.94;63.63;99787.59;4994729;28;20881;-78
2022/11/17 00:40:25;;;;;;;41.67;28.25;;;;;;;11.77;64.25;99787.94;4995833;28;20719;-77
2022/11/17 00:42:50;;;;;;;43.13;29.33;;;;;;;11.81;64.32;99794.50;4995707;28;20862;-77
2022/11/17 00:45:16;;;;;;;41.20;28.23;;;;;;;11.94;63.87;99788.44;5002686;28;20463;-78
2022/11/17 00:47:42;;;;;;;41.80;28.00;;;;;;;12.01;63.82;99778.63;5009940;28;20478;-77
2022/11/17 00:50:08;;;;;;;40.17;28.13;;;;;;;12.16;63.04;99773.13;5002226;28;20417;-78
2022/11/17 00:52:34;;;;;;;39.75;27.13;;;;;;;12.07;63.05;99766.38;5011597;28;20386;-78
2022/11/17 00:54:59;;;;;;;37.83;26.52;;;;;;;12.00;63.42;99758.41;5006155;28;20399;-79
2022/11/17 00:57:25;;;;;;;39.67;28.43;;;;;;;12.00;63.66;99755.75;5003051;28;20389;-78
2022/11/17 00:59:50;;;;;;;37.25;26.20;;;;;;;12.10;63.39;99765.97;5011806;28;20384;-78
2022/11/17 01:02:16;;;;;;;36.87;26.00;;;;;;;12.04;63.78;99758.81;4993978;28;20493;-77
2022/11/17 01:04:41;;;;;;;36.42;24.77;;;;;;;11.91;64.00;99759.63;4998361;28;20503;-77
2022/11/17 01:07:06;;;;;;;36.97;25.63;;;;;;;11.82;64.24;99743.03;4996529;28;20388;-77
2022/11/17 01:09:32;;;;;;;39.08;27.45;;;;;;;11.88;64.27;99751.19;5003821;28;20392;-78
2022/11/17 01:11:57;;;;;;;39.10;27.10;;;;;;;11.90;63.88;99742.03;5003203;28;20397;-78
2022/11/17 01:14:26;;;;;;;41.07;27.47;;;;;;;11.99;63.85;99753.28;4998799;28;20785;-78
2022/11/17 01:16:53;;;;;;;37.70;26.48;;;;;;;11.97;63.75;99748.16;5006116;28;20892;-77
2022/11/17 01:19:19;;;;;;;42.97;28.15;;;;;;;12.05;63.79;99749.84;5003354;28;20404;-78
2022/11/17 01:21:45;;;;;;;36.80;25.48;;;;;;;12.13;63.46;99746.97;4994911;28;20392;-78
2022/11/17 01:24:12;;;;;;;36.28;25.30;;;;;;;12.11;63.15;99754.31;4999815;28;20404;-78
2022/11/17 01:26:39;;;;;;;35.58;25.45;;;;;;;11.96;63.68;99751.88;5005118;28;20397;-77
2022/11/17 01:29:05;;;;;;;37.33;25.55;;;;;;;12.05;63.70;99741.88;4998167;28;21070;-77
2022/11/17 01:31:33;;;;;;;34.78;24.27;;;;;;;12.23;63.12;99736.75;4999336;28;20486;-78
2022/11/17 01:33:59;;;;;;;34.80;24.85;;;;;;;12.36;62.71;99735.94;5002693;28;20857;-77
2022/11/17 01:36:28;;;;;;;36.00;24.20;;;;;;;12.40;62.42;99741.66;4998555;28;20396;-77
2022/11/17 01:38:54;;;;;;;43.63;29.67;;;;;;;12.47;62.43;99728.34;5000692;28;20463;-78
2022/11/17 01:41:25;;;;;;;36.13;24.35;;;;;;;12.51;62.19;99732.22;5006097;28;20427;-78
2022/11/17 01:44:29;;;;;;;42.70;28.85;;;;;;;12.56;62.00;99724.47;5008381;28;20436;-77
2022/11/17 01:46:54;;;;;;;38.97;24.77;;;;;;;12.36;62.56;99705.88;5001173;28;20398;-77
2022/11/17 01:49:23;;;;;;;35.23;24.83;;;;;;;12.39;62.36;99702.81;5003478;28;20746;-78
2022/11/17 01:51:54;;;;;;;39.90;26.02;;;;;;;12.39;62.33;99692.19;4999311;28;20700;-78
2022/11/17 01:54:23;;;;;;;41.08;26.67;;;;;;;12.42;62.07;99697.91;4997587;28;20409;-76
2022/11/17 01:56:54;;;;;;;37.65;25.58;;;;;;;12.39;62.28;99689.53;4996569;28;20394;-77
2022/11/17 01:59:24;;;;;;;41.70;28.08;;;;;;;12.12;62.89;99691.38;4999972;28;20935;-77
2022/11/17 02:01:55;;;;;;;37.60;25.90;;;;;;;12.02;63.48;99687.28;5003244;28;20392;-77
2022/11/17 02:04:33;;;;;;;39.65;26.60;;;;;;;12.02;63.33;99694.44;5003473;28;20397;-77
2022/11/17 02:07:12;;;;;;;37.33;25.65;;;;;;;12.01;63.61;99692.81;4990287;28;20487;-77
2022/11/17 02:09:39;;;;;;;36.65;24.70;;;;;;;11.98;63.50;99699.34;5001732;28;20396;-77
2022/11/17 02:12:08;;;;;;;35.35;24.98;;;;;;;11.95;63.71;99697.09;4993992;28;20397;-77
2022/11/17 02:14:34;;;;;;;36.15;24.55;;;;;;;11.86;64.08;99690.31;5004738;28;20802;-77
2022/11/17 02:17:01;;;;;;;37.45;24.88;;;;;;;11.84;64.17;99695.84;4985681;28;20386;-78
2022/11/17 02:19:34;;;;;;;35.47;23.98;;;;;;;11.70;64.13;99688.88;4993915;28;20723;-77
2022/11/17 02:22:09;;;;;;;33.53;23.55;;;;;;;11.80;64.17;99683.19;4997525;28;20432;-78
2022/11/17 02:24:52;;;;;;;33.72;23.15;;;;;;;11.79;64.18;99682.38;4992855;28;20480;-77
2022/11/17 02:27:23;;;;;;;34.58;23.40;;;;;;;11.82;64.13;99684.59;4988320;28;20463;-77
2022/11/17 02:30:10;;;;;;;33.45;23.45;;;;;;;11.61;64.65;99687.44;5000504;28;20402;-81
2022/11/17 02:32:42;;;;;;;32.35;22.35;;;;;;;11.74;64.43;99683.97;4999585;28;20409;-80
2022/11/17 02:35:45;;;;;;;33.10;23.92;;;;;;;11.69;64.42;99684.59;4998489;28;20723;-79
2022/11/17 02:38:22;;;;;;;32.45;22.65;;;;;;;11.82;64.17;99673.16;5006555;28;20422;-79
2022/11/17 02:40:53;;;;;;;31.23;22.75;;;;;;;11.99;63.66;99670.94;4995984;28;20382;-77
2022/11/17 02:46:16;;;;;;;33.88;22.48;;;;;;;11.75;64.07;99657.22;4997376;28;20401;-78
2022/11/17 02:48:52;;;;;;;31.42;22.85;;;;;;;11.78;64.07;99666.66;4995760;28;20421;-78
2022/11/17 02:51:23;;;;;;;32.77;23.33;;;;;;;11.93;64.09;99653.19;5002478;28;20420;-78
2022/11/17 02:53:54;;;;;;;31.25;23.73;;;;;;;12.13;63.18;99650.50;4993287;28;20389;-78
2022/11/17 02:56:20;;;;;;;34.22;23.20;;;;;;;12.07;63.01;99643.38;4991080;28;20386;-77
2022/11/17 02:58:52;;;;;;;33.33;23.60;;;;;;;11.83;63.62;99633.16;4997308;28;20396;-77
2022/11/17 03:01:21;;;;;;;32.35;23.55;;;;;;;11.95;63.71;99643.19;5002885;28;20751;-77
2022/11/17 03:04:01;;;;;;;35.28;24.77;;;;;;;12.07;63.42;99638.06;4992858;28;20425;-77
2022/11/17 03:06:51;;;;;;;64.93;45.05;;;;;;;12.26;62.73;99634.53;5000957;28;21002;-77
2022/11/17 03:09:42;;;;;;;33.13;22.52;;;;;;;12.26;62.52;99626.56;5010599;28;20394;-78
2022/11/17 03:12:15;;;;;;;60.33;42.30;;;;;;;12.09;63.10;99634.16;4999704;28;20420;-78
2022/11/17 03:14:55;;;;;;;41.83;29.27;;;;;;;11.95;63.44;99632.56;5001513;28;20436;-78
2022/11/17 03:17:31;;;;;;;46.63;31.80;;;;;;;12.02;63.56;99630.69;5003745;28;20395;-79
2022/11/17 03:20:46;;;;;;;34.72;25.58;;;;;;;11.99;63.28;99631.94;4996307;28;20397;-78
2022/11/17 03:23:23;;;;;;;31.05;22.13;;;;;;;11.94;63.49;99628.25;5001656;28;20408;-79
2022/11/17 03:25:56;;;;;;;32.30;23.80;;;;;;;11.83;63.74;99629.69;5007783;28;20480;-78
2022/11/17 03:28:28;;;;;;;31.15;23.70;;;;;;;11.81;64.10;99631.69;5001861;28;20799;-79
2022/11/17 03:30:55;;;;;;;29.73;21.17;;;;;;;11.62;64.22;99615.56;4995573;28;20484;-78
2022/11/17 03:33:24;;;;;;;31.15;21.73;;;;;;;11.48;64.70;99620.03;4992906;28;20386;-78
2022/11/17 03:36:05;;;;;;;33.70;22.17;;;;;;;11.39;65.16;99621.25;5001951;28;20416;-78
2022/11/17 03:38:36;;;;;;;35.38;23.55;;;;;;;11.31;65.42;99624.13;4990315;28;20411;-78
2022/11/17 03:41:04;;;;;;;34.15;23.77;;;;;;;11.31;65.33;99610.84;4998113;28;20392;-77
2022/11/17 03:43:31;;;;;;;37.07;24.43;;;;;;;11.30;65.28;99606.56;4987471;28;20397;-78
2022/11/17 03:46:04;;;;;;;38.35;26.77;;;;;;;11.34;65.24;99618.38;5008424;28;20406;-78
2022/11/17 03:48:43;;;;;;;33.08;23.38;;;;;;;11.37;65.12;99614.53;4998334;28;20394;-78
2022/11/17 03:51:12;;;;;;;34.95;24.80;;;;;;;11.41;64.89;99600.66;5006340;28;20412;-78
2022/11/17 03:53:38;;;;;;;36.40;25.83;;;;;;;11.42;65.00;99594.34;4998443;28;20449;-78
2022/11/17 03:56:09;;;;;;;38.83;27.73;;;;;;;11.29;65.00;99594.34;4999310;28;20400;-77
2022/11/17 03:58:43;;;;;;;39.28;28.13;;;;;;;11.34;65.15;99591.06;4998617;28;20391;-78
2022/11/17 04:01:09;;;;;;;38.05;27.98;;;;;;;11.53;64.65;99589.44;4986069;28;20460;-77
2022/11/17 04:03:36;;;;;;;34.65;24.35;;;;;;;11.49;64.55;99597.00;5007945;28;20412;-77
2022/11/17 04:06:02;;;;;;;36.92;25.27;;;;;;;11.39;64.80;99597.38;5002199;28;20461;-77
2022/11/17 04:08:29;;;;;;;36.20;23.23;;;;;;;11.29;64.30;99604.94;5000874;28;20397;-76
2022/11/17 04:16:23;;;;;;;37.50;24.48;;;;;;;11.14;65.43;99609.59;4989305;28;20857;-76
2022/11/17 04:18:48;;;;;;;40.33;24.93;;;;;;;10.93;65.91;99605.25;4995109;28;20397;-77
2022/11/17 04:21:14;;;;;;;39.83;26.60;;;;;;;11.10;65.75;99611.81;4994832;28;20854;-77
2022/11/17 04:23:39;;;;;;;39.43;26.37;;;;;;;11.23;65.01;99613.69;4994844;28;20397;-77
2022/11/17 04:28:49;;;;;;;42.40;27.33;;;;;;;11.21;64.76;99599.81;4994554;28;20405;-76
2022/11/17 04:31:21;;;;;;;44.00;29.00;;;;;;;11.14;65.19;99612.25;4994076;28;20413;-76
2022/11/17 04:33:55;;;;;;;44.00;27.70;;;;;;;11.15;65.07;99603.28;4994296;28;20432;-77
2022/11/17 04:36:23;;;;;;;47.85;29.05;;;;;;;11.12;65.02;99601.03;4993733;28;20394;-78
2022/11/17 04:38:54;;;;;;;57.42;34.00;;;;;;;11.06;65.15;99597.34;4993923;28;20390;-77
2022/11/17 04:44:07;;;;;;;57.55;33.97;;;;;;;11.14;65.27;99605.09;4986181;28;20400;-77
2022/11/17 04:46:33;;;;;;;53.75;33.70;;;;;;;11.11;65.12;99610.81;4994724;28;20476;-77
2022/11/17 04:49:00;;;;;;;52.40;30.73;;;;;;;11.13;65.15;99611.44;4994042;28;20423;-77
2022/11/17 04:51:27;;;;;;;46.90;30.20;;;;;;;11.13;65.01;99623.84;4998064;28;20401;-77
2022/11/17 04:53:54;;;;;;;50.97;29.48;;;;;;;11.06;65.00;99621.22;4998921;28;20409;-78
2022/11/17 04:56:21;;;;;;;49.35;28.85;;;;;;;11.01;65.27;99621.00;5005756;28;20396;-79
2022/11/17 04:58:47;;;;;;;50.95;30.38;;;;;;;10.87;65.60;99614.81;5001157;28;20398;-78
2022/11/17 05:01:13;;;;;;;46.20;27.85;;;;;;;10.76;66.67;99612.75;5000455;28;20390;-80
2022/11/17 05:03:47;;;;;;;47.40;27.87;;;;;;;10.67;66.47;99610.25;5002177;28;20478;-80
2022/11/17 05:06:34;;;;;;;46.60;27.77;;;;;;;10.71;66.71;99623.94;4995697;28;20456;-82
2022/11/17 05:09:03;;;;;;;45.95;27.08;;;;;;;10.50;67.62;99622.22;4992827;28;20417;-81
2022/11/17 05:14:16;;;;;;;46.00;27.08;;;;;;;10.56;67.64;99637.31;4995279;28;20399;-83
2022/11/17 05:19:29;;;;;;;44.20;27.20;;;;;;;10.35;68.93;99677.94;5001072;28;20482;-80
2022/11/17 05:21:55;;;;;;;44.50;27.48;;;;;;;10.47;68.16;99676.41;4996453;28;20770;-80
2022/11/17 05:24:21;;;;;;;42.03;25.90;;;;;;;10.48;68.79;99685.19;4999189;28;20400;-78
2022/11/17 05:26:48;;;;;;;45.35;27.02;;;;;;;10.45;68.54;99696.16;4999814;28;20393;-80
2022/11/17 05:29:17;;;;;;;39.37;24.13;;;;;;;10.32;69.80;99707.50;4995864;28;21143;-79
2022/11/17 05:31:43;;;;;;;47.08;26.20;;;;;;;10.33;69.71;99719.72;4996867;28;20491;-80
2022/11/17 05:34:11;;;;;;;44.40;24.90;;;;;;;10.02;71.24;99718.22;4998114;28;20402;-80
2022/11/17 05:36:38;;;;;;;39.50;23.52;;;;;;;10.09;71.20;99716.44;5000255;28;20782;-81
2022/11/17 05:39:04;;;;;;;43.17;24.67;;;;;;;10.11;70.97;99718.91;4997278;28;20866;-81
2022/11/17 05:41:30;;;;;;;37.72;22.15;;;;;;;10.14;71.25;99711.41;4998569;28;20389;-81
2022/11/17 05:43:56;;;;;;;42.38;25.92;;;;;;;10.28;70.86;99716.78;5003298;28;20408;-82
2022/11/17 05:46:23;;;;;;;45.03;24.52;;;;;;;10.24;71.04;99724.31;4994759;28;20386;-81
2022/11/17 05:48:49;;;;;;;43.70;24.35;;;;;;;10.35;70.69;99720.34;4994391;28;20390;-80
2022/11/17 05:51:19;;;;;;;41.70;26.10;;;;;;;10.69;69.38;99729.31;4995191;28;20429;-82
2022/11/17 05:53:45;;;;;;;42.40;25.20;;;;;;;10.72;69.23;99742.19;4995705;28;20390;-81
2022/11/17 05:56:29;;;;;;;37.40;24.05;;;;;;;10.55;69.89;99743.50;5001834;28;20394;-82
2022/11/17 05:59:01;;;;;;;35.78;21.33;;;;;;;10.68;69.32;99747.06;4993585;28;20793;-80
2022/11/17 06:01:28;;;;;;;35.25;21.38;;;;;;;10.61;69.85;99756.00;5004573;28;20380;-80
2022/11/17 06:03:56;;;;;;;31.52;20.42;;;;;;;10.58;70.04;99753.72;5006171;28;20420;-81
2022/11/17 06:06:22;;;;;;;33.03;20.92;;;;;;;10.78;69.47;99746.72;5000067;28;20390;-82
2022/11/17 06:08:49;;;;;;;31.80;19.80;;;;;;;11.10;68.39;99739.94;4993416;28;20393;-81
2022/11/17 06:11:15;;;;;;;32.15;21.88;;;;;;;11.37;67.08;99732.09;5002334;28;20404;-81
2022/11/17 06:13:41;;;;;;;34.20;22.52;;;;;;;11.40;66.81;99725.59;5003490;28;20408;-82
2022/11/17 06:16:10;;;;;;;33.35;20.80;;;;;;;11.64;66.59;99726.88;4999043;28;20388;-81
2022/11/17 06:18:50;;;;;;;31.73;21.13;;;;;;;11.72;65.84;99728.50;4996093;28;20762;-81
2022/11/17 06:21:16;;;;;;;30.65;20.67;;;;;;;11.80;65.66;99728.31;4993184;28;20397;-83
2022/11/17 06:23:43;;;;;;;30.20;20.20;;;;;;;11.79;65.56;99731.97;4994679;28;20393;-83
2022/11/17 06:26:10;;;;;;;32.43;22.30;;;;;;;11.84;65.55;99732.19;5003899;28;20714;-82
2022/11/17 06:28:39;;;;;;;33.15;23.05;;;;;;;11.92;65.50;99733.88;4998567;28;20400;-82
2022/11/17 06:31:06;;;;;;;33.47;23.80;;;;;;;11.98;65.26;99746.34;4994236;28;21078;-82
2022/11/17 06:33:33;;;;;;;33.60;23.20;;;;;;;12.02;65.32;99752.88;5003557;28;20384;-81
2022/11/17 06:36:00;;;;;;;31.63;22.25;;;;;;;12.03;65.53;99763.31;4997263;28;20510;-80
2022/11/17 06:38:26;;;;;;;34.85;22.38;;;;;;;12.09;65.08;99766.19;5003366;28;20387;-81
2022/11/17 06:40:51;;;;;;;33.23;23.17;;;;;;;12.19;65.15;99753.28;4997708;28;20396;-81
2022/11/17 06:43:17;;;;;;;31.63;21.38;;;;;;;12.23;64.87;99759.84;5001431;28;20849;-81
2022/11/17 06:45:44;;;;;;;28.92;20.52;;;;;;;12.23;64.61;99759.84;4994103;28;20393;-78
2022/11/17 06:48:12;;;;;;;33.72;23.33;;;;;;;12.24;64.94;99772.94;4989510;28;20875;-79
2022/11/17 06:50:38;;;;;;;60.00;40.50;;;;;;;12.17;64.52;99772.13;4984743;28;20428;-79
2022/11/17 06:53:07;;;;;;;32.00;21.00;;;;;;;12.29;65.04;99772.31;4990789;28;20416;-79
2022/11/17 06:55:34;;;;;;;29.90;20.65;;;;;;;12.30;64.61;99770.47;4990368;28;20863;-78
2022/11/17 06:58:07;;;;;;;82.75;53.83;;;;;;;12.36;64.62;99770.47;4993300;28;20693;-78
2022/11/17 07:00:35;;;;;;;27.45;18.58;;;;;;;12.43;64.29;99765.97;4987242;28;20396;-81
2022/11/17 07:03:02;;;;;;;28.98;19.48;;;;;;;12.50;64.11;99770.50;4992324;28;20481;-78
2022/11/17 07:05:29;;;;;;;33.17;23.05;;;;;;;12.43;64.12;99786.44;4992137;28;20417;-79
2022/11/17 07:08:03;;;;;;;27.15;19.45;;;;;;;12.36;64.45;99775.78;4987452;28;20381;-77
2022/11/17 07:10:29;;;;;;;29.38;20.17;;;;;;;12.37;64.56;99771.28;4992739;28;20914;-80
2022/11/17 07:12:55;;;;;;;30.73;20.58;;;;;;;12.30;64.58;99771.31;4990504;28;20427;-77
2022/11/17 07:15:21;;;;;;;31.23;21.13;;;;;;;12.30;64.66;99760.69;5002153;28;20397;-77
2022/11/17 07:17:47;;;;;;;34.08;22.52;;;;;;;12.38;64.44;99747.16;4989298;28;20827;-78
2022/11/17 07:20:13;;;;;;;38.15;26.90;;;;;;;12.41;64.44;99748.63;4991543;28;20436;-78
2022/11/17 07:22:40;;;;;;;37.85;25.23;;;;;;;12.51;64.08;99754.31;4992548;28;20385;-80
2022/11/17 07:25:06;;;;;;;47.78;36.65;;;;;;;12.62;63.71;99767.00;4991542;28;20382;-78
2022/11/17 07:27:31;;;;;;;48.72;37.80;;;;;;;12.63;63.55;99757.97;4992760;28;20381;-77
2022/11/17 07:29:57;;;;;;;40.17;27.80;;;;;;;12.72;63.58;99755.09;4991486;28;20433;-78
2022/11/17 07:32:23;;;;;;;34.40;24.70;;;;;;;12.73;63.48;99751.41;4990392;28;20377;-79
2022/11/17 07:34:49;;;;;;;24.48;17.77;;;;;;;12.44;63.88;99742.88;4990375;28;20381;-78
2022/11/17 07:37:14;;;;;;;23.75;17.20;;;;;;;12.48;64.50;99752.06;4992640;28;20393;-79
2022/11/17 07:39:40;;;;;;;29.90;21.33;;;;;;;12.65;64.05;99752.44;4990549;28;20401;-78
2022/11/17 07:42:05;;;;;;;44.90;29.63;;;;;;;12.80;63.83;99761.03;4993952;28;20390;-77
2022/11/17 07:44:31;;;;;;;74.53;45.50;;;;;;;12.87;63.92;99768.16;4992949;28;20456;-77
2022/11/17 07:46:56;;;;;;;73.03;43.53;;;;;;;12.83;63.91;99770.41;4991028;28;20872;-77
2022/11/17 07:49:22;;;;;;;26.65;18.38;;;;;;;12.68;63.98;99762.69;4993555;28;20425;-78
2022/11/17 07:51:48;;;;;;;33.37;25.07;;;;;;;12.52;64.76;99781.72;4991280;28;20421;-77
2022/11/17 07:54:13;;;;;;;33.13;25.43;;;;;;;12.49;65.06;99780.28;4991397;28;20931;-78
2022/11/17 07:56:39;;;;;;;32.23;22.93;;;;;;;12.60;64.49;99776.19;4991135;28;20404;-79
2022/11/17 07:59:04;;;;;;;23.13;16.40;;;;;;;12.61;64.52;99775.97;4992180;28;20890;-79
2022/11/17 08:01:30;;;;;;;20.83;15.30;;;;;;;12.77;64.48;99777.41;4993861;28;20374;-79
2022/11/17 08:03:56;;;;;;;34.37;23.47;;;;;;;12.92;64.28;99789.63;4994463;28;20479;-79
2022/11/17 08:06:23;;;;;;;27.55;20.83;;;;;;;13.11;64.08;99785.31;4993044;28;20408;-77
2022/11/17 08:08:48;;;;;;;24.63;18.20;;;;;;;13.23;63.75;99790.78;4992993;28;20739;-77
2022/11/17 08:11:14;;;;;;;22.87;16.30;;;;;;;13.36;63.65;99777.44;4999102;28;20418;-77
2022/11/17 08:13:41;;;;;;;19.50;15.23;;;;;;;13.46;63.39;99791.13;5003579;28;20539;-77
2022/11/17 08:16:08;;;;;;;19.63;15.65;;;;;;;13.51;63.24;99793.97;4992283;28;20401;-80
2022/11/17 08:18:34;;;;;;;24.67;16.80;;;;;;;13.48;63.33;99799.72;4992365;28;20404;-81
2022/11/17 08:21:12;;;;;;;24.52;17.58;;;;;;;13.38;63.77;99796.72;5004191;28;20425;-78
2022/11/17 08:23:38;;;;;;;17.75;12.85;;;;;;;13.29;63.73;99803.25;5000425;28;20380;-78
2022/11/17 08:26:05;;;;;;;24.23;17.67;;;;;;;13.35;64.37;99797.94;5003246;28;20386;-79
2022/11/17 08:28:32;;;;;;;19.10;12.18;;;;;;;13.42;64.16;99805.09;5008713;28;20399;-77
2022/11/17 08:31:00;;;;;;;15.27;11.03;;;;;;;13.44;64.51;99803.03;4996393;28;20890;-77
2022/11/17 08:33:26;;;;;;;14.85;11.00;;;;;;;13.45;64.74;99801.97;5006960;28;20385;-78
2022/11/17 08:35:51;;;;;;;13.88;10.70;;;;;;;13.60;64.35;99804.41;5000459;28;20738;-77
2022/11/17 08:38:17;;;;;;;15.23;9.90;;;;;;;13.67;64.14;99808.66;5005093;28;20401;-77
2022/11/17 08:40:43;;;;;;;15.83;10.97;;;;;;;13.72;64.42;99813.34;4994625;28;20394;-77
2022/11/17 08:43:08;;;;;;;15.23;8.87;;;;;;;13.68;64.94;99815.59;4994814;28;20405;-77
2022/11/17 08:45:34;;;;;;;12.20;9.60;;;;;;;13.69;65.17;99816.44;4994667;28;20396;-77
2022/11/17 08:47:59;;;;;;;11.23;8.83;;;;;;;14.03;64.89;99820.56;4995237;28;20378;-77
2022/11/17 08:50:25;;;;;;;12.23;9.43;;;;;;;14.02;64.99;99810.91;5000073;28;20505;-79
2022/11/17 08:52:52;;;;;;;21.38;15.25;;;;;;;14.25;64.51;99799.69;5014976;28;20384;-78
2022/11/17 08:55:17;;;;;;;9.30;7.30;;;;;;;14.44;64.33;99805.06;4997317;28;20548;-77
2022/11/17 08:57:43;;;;;;;10.60;8.80;;;;;;;14.59;64.10;99797.59;4995116;28;20841;-77
2022/11/17 09:00:10;;;;;;;36.77;27.27;;;;;;;14.80;63.59;99796.41;4995383;28;20472;-77
2022/11/17 09:02:38;;;;;;;7.63;6.43;;;;;;;15.03;64.16;99797.59;4994998;28;20425;-77
2022/11/17 09:05:04;;;;;;;6.53;5.73;;;;;;;15.18;64.14;99794.53;4993818;28;20917;-79
2022/11/17 09:07:33;;;;;;;9.80;7.03;;;;;;;15.36;64.28;99797.22;4995886;28;20528;-79
2022/11/17 09:09:59;;;;;;;8.13;5.90;;;;;;;15.52;63.63;99800.31;4996167;28;20801;-77
2022/11/17 09:12:25;;;;;;;5.20;4.32;;;;;;;15.43;63.38;99813.16;4995372;28;20408;-76
2022/11/17 09:14:50;;;;;;;5.43;3.35;;;;;;;15.37;63.32;99811.38;4979755;28;20778;-77
2022/11/17 09:17:16;;;;;;;6.57;3.47;;;;;;;15.45;62.81;99800.41;5007726;28;20381;-77
2022/11/17 09:19:41;;;;;;;7.03;5.22;;;;;;;15.79;62.39;99806.16;4995434;28;20563;-80
2022/11/17 09:22:07;;;;;;;8.70;6.80;;;;;;;15.96;61.86;99807.16;4996979;28;20382;-79
2022/11/17 09:24:32;;;;;;;12.70;7.25;;;;;;;15.89;60.97;99795.72;4999444;28;20426;-78
2022/11/17 09:26:58;;;;;;;11.70;7.53;;;;;;;15.90;60.33;99805.41;5010389;28;20724;-77
2022/11/17 09:29:23;;;;;;;7.95;5.65;;;;;;;16.12;59.47;99808.34;4996105;28;20378;-80
2022/11/17 09:31:49;;;;;;;5.60;4.43;;;;;;;16.17;58.60;99815.69;4995660;28;20398;-80
2022/11/17 09:34:15;;;;;;;3.43;3.00;;;;;;;15.89;56.76;99805.63;4997201;28;20549;-79
2022/11/17 09:36:41;;;;;;;3.17;2.70;;;;;;;15.92;56.64;99805.97;4998388;28;20370;-78
2022/11/17 09:39:06;;;;;;;3.30;2.70;;;;;;;16.19;57.18;99802.91;5008651;28;20393;-80
2022/11/17 09:41:44;;;;;;;2.78;2.45;;;;;;;16.12;55.89;99803.00;4996078;28;20373;-80
2022/11/17 09:44:19;;;;;;;3.38;2.80;;;;;;;16.30;55.72;99812.00;4994503;28;20807;-77
2022/11/17 09:46:50;;;;;;;3.83;2.85;;;;;;;16.36;56.12;99803.84;4995357;28;20471;-77
2022/11/17 09:49:34;;;;;;;3.90;3.50;;;;;;;16.48;56.17;99806.56;4993358;28;20385;-77
2022/11/17 09:52:08;;;;;;;5.20;4.00;;;;;;;16.55;56.15;99806.47;4994600;28;20397;-77
2022/11/17 09:54:47;;;;;;;2.85;2.47;;;;;;;16.13;54.17;99809.16;4994660;28;20393;-76
2022/11/17 09:57:28;;;;;;;4.07;2.55;;;;;;;16.13;54.32;99795.78;4993230;28;20386;-76
2022/11/17 10:00:15;;;;;;;3.97;3.58;;;;;;;16.27;54.22;99807.91;4994355;28;20377;-78
2022/11/17 10:02:41;;;;;;;3.30;2.90;;;;;;;16.34;53.50;99803.28;4987277;28;20458;-79
2022/11/17 10:05:30;;;;;;;4.80;3.40;;;;;;;16.50;53.57;99798.31;4987169;28;20393;-77
2022/11/17 10:08:02;;;;;;;4.80;4.03;;;;;;;16.61;53.28;99805.53;4995765;28;20378;-78
2022/11/17 10:10:43;;;;;;;9.40;6.85;;;;;;;16.75;53.25;99795.41;4996172;28;20916;-80
2022/11/17 10:13:15;;;;;;;6.25;4.75;;;;;;;16.67;52.90;99795.75;4995667;28;20390;-79
2022/11/17 10:15:46;;;;;;;6.57;5.85;;;;;;;16.66;53.25;99794.94;4998228;28;20433;-78
2022/11/17 10:18:14;;;;;;;11.35;7.75;;;;;;;16.86;52.79;99775.88;4996041;28;20865;-80
2022/11/17 10:20:43;;;;;;;6.15;4.45;;;;;;;16.85;52.53;99778.78;4996150;28;20378;-80
2022/11/17 10:23:14;;;;;;;3.97;3.10;;;;;;;16.77;50.89;99787.97;5008269;28;20378;-80
2022/11/17 10:25:45;;;;;;;18.30;13.90;;;;;;;16.81;52.08;99783.75;4995307;28;20377;-77
2022/11/17 10:28:29;;;;;;;4.93;3.80;;;;;;;16.94;51.28;99793.44;4982131;28;20389;-79
2022/11/17 10:31:01;;;;;;;4.78;4.22;;;;;;;17.03;50.46;99784.00;4995306;28;20904;-78
2022/11/17 10:33:33;;;;;;;4.25;3.83;;;;;;;17.02;50.81;99784.25;4995530;28;20397;-81
2022/11/17 10:35:59;;;;;;;4.07;3.67;;;;;;;17.16;50.43;99786.44;4996047;28;20448;-78
2022/11/17 10:38:28;;;;;;;3.28;2.97;;;;;;;17.07;50.02;99779.81;4995885;28;20389;-77
2022/11/17 10:40:56;;;;;;;5.38;3.38;;;;;;;17.20;50.22;99765.34;4995896;28;21122;-78
2022/11/17 10:43:29;;;;;;;3.67;3.38;;;;;;;17.30;49.01;99762.84;4996635;28;20381;-79
2022/11/17 10:46:01;;;;;;;4.88;3.88;;;;;;;17.41;49.39;99768.41;4994102;28;20374;-78
2022/11/17 10:48:35;;;;;;;6.35;5.20;;;;;;;17.35;49.18;99767.50;4998406;28;20385;-82
2022/11/17 10:51:10;;;;;;;6.07;4.72;;;;;;;17.18;48.48;99773.63;4997186;28;20432;-79
2022/11/17 10:53:39;;;;;;;4.57;4.18;;;;;;;17.25;49.07;99773.50;4994981;28;20390;-78
2022/11/17 10:56:20;;;;;;;4.30;3.90;;;;;;;17.49;48.89;99773.41;4994840;28;20461;-80
2022/11/17 10:59:15;;;;;;;5.40;4.25;;;;;;;17.47;47.53;99768.28;5000117;28;20378;-78
2022/11/17 11:01:43;;;;;;;4.20;3.80;;;;;;;17.69;47.62;99781.81;4996682;28;20397;-77
2022/11/17 11:04:33;;;;;;;4.90;4.40;;;;;;;17.68;47.43;99782.91;4994289;28;20420;-79
2022/11/17 11:07:13;;;;;;;5.78;3.80;;;;;;;17.66;46.87;99784.19;4995826;28;20453;-78
2022/11/17 11:10:28;;;;;;;4.50;3.92;;;;;;;17.75;46.88;99783.56;4983612;28;20802;-79
2022/11/17 11:13:05;;;;;;;4.80;3.53;;;;;;;17.78;47.04;99780.38;4980958;28;20795;-80
2022/11/17 11:15:34;;;;;;;2.95;2.65;;;;;;;17.69;45.18;99771.09;4996044;28;20377;-79
2022/11/17 11:18:00;;;;;;;6.65;3.60;;;;;;;17.65;44.81;99771.84;4983812;28;20417;-79
2022/11/17 11:20:53;;;;;;;3.20;2.80;;;;;;;17.55;44.45;99775.13;4995810;28;20378;-79
2022/11/17 11:23:38;;;;;;;3.97;2.88;;;;;;;17.45;43.77;99767.72;4996391;28;20366;-79
2022/11/17 11:26:22;;;;;;;5.00;3.45;;;;;;;17.42;44.58;99770.88;4995077;28;20386;-79
2022/11/17 11:29:08;;;;;;;3.23;2.57;;;;;;;17.37;43.36;99774.25;4996942;28;20382;-81
2022/11/17 11:31:52;;;;;;;4.00;3.25;;;;;;;17.47;43.37;99783.56;4995116;28;20869;-79
2022/11/17 11:34:42;;;;;;;4.40;3.40;;;;;;;17.72;43.76;99773.31;5010491;28;20380;-79
2022/11/17 11:37:12;;;;;;;4.38;3.92;;;;;;;17.83;43.42;99781.56;4995277;28;20392;-80
2022/11/17 11:40:14;;;;;;;4.68;3.58;;;;;;;17.77;43.38;99781.47;4998292;28;20393;-80
2022/11/17 11:42:48;;;;;;;2.63;2.42;;;;;;;17.57;42.87;99776.53;4995170;28;20392;-79
2022/11/17 11:45:38;;;;;;;3.33;3.03;;;;;;;17.69;43.51;99789.88;4983529;28;20370;-80
2022/11/17 11:48:19;;;;;;;5.28;4.75;;;;;;;17.77;45.76;99783.31;4998243;28;20392;-80
2022/11/17 11:50:58;;;;;;;4.95;4.45;;;;;;;17.35;47.31;99799.66;5000362;28;20405;-79
2022/11/17 11:53:41;;;;;;;5.90;5.30;;;;;;;17.22;48.04;99779.31;4995888;28;20386;-78
2022/11/17 11:56:15;;;;;;;5.38;4.88;;;;;;;17.24;48.39;99790.59;5003054;28;20438;-80
2022/11/17 11:59:06;;;;;;;5.75;5.00;;;;;;;17.38;47.77;99789.28;4999443;28;20754;-79
2022/11/17 12:01:43;;;;;;;6.07;5.43;;;;;;;17.28;48.18;99783.72;5009927;28;20526;-79
2022/11/17 12:04:23;;;;;;;5.88;5.38;;;;;;;17.41;47.89;99795.22;4997646;28;20424;-79
2022/11/17 12:07:06;;;;;;;6.72;6.03;;;;;;;17.27;48.15;99787.47;5001189;28;20385;-80